Agenda, Kansas
Current Conditions -  °F | °C
As of 3:55 AM on Friday 31 Oct 2014 (Local Time) from KCNK Reporting Station
Clear Clear  
Wind Chill: 31°   Ceiling: Unl
Heat Index: 39°   Visibility: 10mi
Dew Point: 32°   Wind: 15mph
Humidity: 76%   Direction: 10°N
Pressure: 30.42"   Gusts: 26mph
Location:  39.71°N, 97.43°W
Report Text: KCNK 310855Z AUTO 01013G23KT 10SM CLR 04/00 A3042 RMK AO2 SLP303 T00390000 53015
Loading
Personal Weather Stations






























Interactive Weather Map
Tropical Storm Tracking
New forecast layout! Learn more

10-Day Weather Forecast

Advertisements
Track Severe Weather on mobile